Phoenix Cross — MRBQ7 — position and weather

sailwx.info

Track history (hours):
 
Tides and Currents Weather Stations Pressure Air Temp Water Temp Dewpoint Dewpoint Depression Visibility Wind Speed Wind Dir Waves Ship Positions

Phoenix Cross

Last reported at 2016-Feb-10 00:28 UTC. Time now 2016-Feb-10 00:41 UTC.
Position N 54°35' W 001°13'.

Length 30 m; draft 5 m.

Type: Ship. MMSI: 235067452.

Date/timePositionNaut miles runAvg speedWind from/ knotsBaromVisibWave heightAir tempDewpointWater temp
2016-Feb-10 00:28N 54°35' W 001°13'0 0.0
2016-Feb-09 23:28N 54°35' W 001°13'0 0.0
2016-Feb-09 22:33N 54°35' W 001°13'0 0.0
2016-Feb-09 21:32N 54°35' W 001°13'0 0.0
2016-Feb-09 17:13N 54°35' W 001°13'0 0.0
2016-Feb-09 16:24N 54°35' W 001°13'0 0.0
2016-Feb-09 15:31N 54°35' W 001°13'0 0.0
2016-Feb-09 14:32N 54°35' W 001°13'3 3.2
2016-Feb-09 13:34N 54°38' W 001°10'3 3.1
2016-Feb-09 12:32N 54°35' W 001°13'0 0.0
2016-Feb-09 11:30N 54°35' W 001°13'0 0.0
2016-Feb-09 10:31N 54°35' W 001°13'0 0.0
2016-Feb-09 09:33N 54°35' W 001°13'0 0.0
2016-Feb-09 03:32N 54°35' W 001°13'0 0.0
2016-Feb-09 02:31N 54°35' W 001°13'0 0.0
2016-Feb-09 01:23N 54°35' W 001°13'0 0.0
2016-Feb-09 00:13N 54°35' W 001°13'0 0.0
2016-Feb-08 23:19N 54°35' W 001°13'0 0.0
2016-Feb-08 20:23N 54°35' W 001°13'0 0.0
2016-Feb-08 15:28N 54°35' W 001°13'0 0.0
2016-Feb-08 14:33N 54°35' W 001°13'3 2.9
2016-Feb-08 13:33N 54°37' W 001°10'2 1.5
2016-Feb-08 12:33N 54°39' W 001°09'4 4.1
2016-Feb-08 11:32N 54°35' W 001°12'0 0.3
2016-Feb-08 10:09N 54°35' W 001°13'0 0.0
2016-Feb-08 09:29N 54°35' W 001°13'0 0.0
2016-Feb-07 23:27N 54°35' W 001°13'3 3.4
2016-Feb-07 22:33N 54°37' W 001°10'3 0.4
2016-Feb-07 15:25N 54°35' W 001°13'0 0.0
2016-Feb-07 13:33N 54°35' W 001°13'0 0.0
2016-Feb-07 11:31N 54°35' W 001°13'0 0.0
2016-Feb-07 10:32N 54°35' W 001°13'0 0.0
2016-Feb-07 09:32N 54°35' W 001°13'0 0.0
2016-Feb-07 08:32N 54°35' W 001°13'2 0.2
2016-Feb-06 20:27N 54°36' W 001°10'2 1.7
2016-Feb-06 19:33N 54°38' W 001°10'1 0.5
2016-Feb-06 18:33N 54°37' W 001°09'0 0.0
2016-Feb-06 17:33N 54°37' W 001°09'3 2.2
2016-Feb-06 16:06N 54°35' W 001°13'0 0.0
2016-Feb-06 15:29N 54°35' W 001°13'0 0.1
2016-Feb-06 13:34N 54°35' W 001°12'1 0.9
2016-Feb-06 12:33N 54°35' W 001°11'0 0.1
2016-Feb-06 11:33N 54°36' W 001°11'2 2.0
2016-Feb-06 10:33N 54°37' W 001°09'0 0.2
2016-Feb-06 09:33N 54°37' W 001°09'1 0.5
2016-Feb-06 08:32N 54°37' W 001°10'0 0.4
2016-Feb-06 07:33N 54°38' W 001°10'1 0.1
2016-Feb-05 16:32N 54°36' W 001°10'0 0.0
2016-Feb-05 08:32N 54°36' W 001°10'1 1.5
2016-Feb-05 07:33N 54°38' W 001°10'3 3.0
2016-Feb-05 06:30N 54°35' W 001°12'0 0.0
2016-Feb-04 18:28N 54°35' W 001°13'3 3.2
2016-Feb-04 17:33N 54°37' W 001°10'3 1.0
2016-Feb-04 14:29N 54°35' W 001°13'0 0.0
2016-Feb-04 13:31N 54°35' W 001°13'0 0.0
2016-Feb-04 12:33N 54°35' W 001°13'0 0.0
2016-Feb-04 11:30N 54°35' W 001°13'0 0.0
2016-Feb-04 10:32N 54°35' W 001°13'0 0.0
2016-Feb-04 09:31N 54°35' W 001°13'0 0.0
2016-Feb-04 08:33N 54°35' W 001°13'3 0.3
2016-Feb-03 22:33N 54°37' W 001°10'0 0.4
2016-Feb-03 21:33N 54°38' W 001°09'3 0.6
2016-Feb-03 16:17N 54°35' W 001°13'0 0.0
2016-Feb-03 15:33N 54°35' W 001°13'0 0.0
2016-Feb-03 14:29N 54°35' W 001°13'0 0.0
2016-Feb-03 13:33N 54°35' W 001°13'0 0.0
2016-Feb-03 12:20N 54°35' W 001°13'0 0.0
2016-Feb-03 11:33N 54°35' W 001°13'0 0.0
2016-Feb-03 10:22N 54°35' W 001°13'1 1.3
2016-Feb-03 09:32N 54°35' W 001°11'1 0.1
2016-Feb-03 01:21N 54°36' W 001°10'1 0.9
2016-Feb-03 00:28N 54°36' W 001°09'2 1.7
2016-Feb-02 23:33N 54°38' W 001°10'0 0.1
2016-Feb-02 22:33N 54°38' W 001°10'1 0.0
2016-Feb-02 00:33N 54°37' W 001°10'1 0.8
2016-Feb-01 23:33N 54°37' W 001°09'0 0.0
2016-Feb-01 22:33N 54°37' W 001°09'3 2.5
2016-Feb-01 21:17N 54°35' W 001°12'3 3.7
2016-Feb-01 20:33N 54°37' W 001°09'0 0.5
2016-Feb-01 19:33N 54°37' W 001°09'0 0.0
2016-Feb-01 18:33N 54°37' W 001°09'1 0.5
2016-Feb-01 16:05N 54°36' W 001°09'0 0.0
2016-Feb-01 15:22N 54°36' W 001°09'0 0.0
2016-Feb-01 14:33N 54°36' W 001°09'0 0.0
2016-Feb-01 13:33N 54°36' W 001°09'0 0.0
2016-Feb-01 12:33N 54°36' W 001°09'1 1.0
2016-Feb-01 11:32N 54°37' W 001°09'2 2.2
2016-Feb-01 10:33N 54°35' W 001°12'1 0.7
2016-Feb-01 09:33N 54°35' W 001°13'0 0.0
2016-Feb-01 01:29N 54°35' W 001°12'2 2.4
2016-Feb-01 00:32N 54°36' W 001°10'1 1.2
2016-Jan-31 23:34N 54°38' W 001°09'3 1.4
2016-Jan-31 21:08N 54°35' W 001°13'1 1.8
2016-Jan-31 20:29N 54°35' W 001°11'0 0.1
2016-Jan-31 19:33N 54°35' W 001°11'1 0.1
2016-Jan-31 11:32N 54°36' W 001°10'0 0.0
2016-Jan-31 07:32N 54°36' W 001°10'  
Track history (hours):
 
Tides and Currents Weather Stations Pressure Air Temp Water Temp Dewpoint Dewpoint Depression Visibility Wind Speed Wind Dir Waves Ship Positions

Phoenix Cross

Last reported at 2016-Feb-10 00:28 UTC. Time now 2016-Feb-10 00:41 UTC.
Position N 54°35' W 001°13'.

Length 30 m; draft 5 m.

Type: Ship. MMSI: 235067452.

Date/timePositionNaut miles runAvg speedWind from/ knotsBaromVisibWave heightAir tempDewpointWater temp
2016-Feb-10 00:28N 54°35' W 001°13'0 0.0
2016-Feb-09 23:28N 54°35' W 001°13'0 0.0
2016-Feb-09 22:33N 54°35' W 001°13'0 0.0
2016-Feb-09 21:32N 54°35' W 001°13'0 0.0
2016-Feb-09 17:13N 54°35' W 001°13'0 0.0
2016-Feb-09 16:24N 54°35' W 001°13'0 0.0
2016-Feb-09 15:31N 54°35' W 001°13'0 0.0
2016-Feb-09 14:32N 54°35' W 001°13'3 3.2
2016-Feb-09 13:34N 54°38' W 001°10'3 3.1
2016-Feb-09 12:32N 54°35' W 001°13'0 0.0
2016-Feb-09 11:30N 54°35' W 001°13'0 0.0
2016-Feb-09 10:31N 54°35' W 001°13'0 0.0
2016-Feb-09 09:33N 54°35' W 001°13'0 0.0
2016-Feb-09 03:32N 54°35' W 001°13'0 0.0
2016-Feb-09 02:31N 54°35' W 001°13'0 0.0
2016-Feb-09 01:23N 54°35' W 001°13'0 0.0
2016-Feb-09 00:13N 54°35' W 001°13'0 0.0
2016-Feb-08 23:19N 54°35' W 001°13'0 0.0
2016-Feb-08 20:23N 54°35' W 001°13'0 0.0
2016-Feb-08 15:28N 54°35' W 001°13'0 0.0
2016-Feb-08 14:33N 54°35' W 001°13'3 2.9
2016-Feb-08 13:33N 54°37' W 001°10'2 1.5
2016-Feb-08 12:33N 54°39' W 001°09'4 4.1
2016-Feb-08 11:32N 54°35' W 001°12'0 0.3
2016-Feb-08 10:09N 54°35' W 001°13'0 0.0
2016-Feb-08 09:29N 54°35' W 001°13'0 0.0
2016-Feb-07 23:27N 54°35' W 001°13'3 3.4
2016-Feb-07 22:33N 54°37' W 001°10'3 0.4
2016-Feb-07 15:25N 54°35' W 001°13'0 0.0
2016-Feb-07 13:33N 54°35' W 001°13'0 0.0
2016-Feb-07 11:31N 54°35' W 001°13'0 0.0
2016-Feb-07 10:32N 54°35' W 001°13'0 0.0
2016-Feb-07 09:32N 54°35' W 001°13'0 0.0
2016-Feb-07 08:32N 54°35' W 001°13'2 0.2
2016-Feb-06 20:27N 54°36' W 001°10'2 1.7
2016-Feb-06 19:33N 54°38' W 001°10'1 0.5
2016-Feb-06 18:33N 54°37' W 001°09'0 0.0
2016-Feb-06 17:33N 54°37' W 001°09'3 2.2
2016-Feb-06 16:06N 54°35' W 001°13'0 0.0
2016-Feb-06 15:29N 54°35' W 001°13'0 0.1
2016-Feb-06 13:34N 54°35' W 001°12'1 0.9
2016-Feb-06 12:33N 54°35' W 001°11'0 0.1
2016-Feb-06 11:33N 54°36' W 001°11'2 2.0
2016-Feb-06 10:33N 54°37' W 001°09'0 0.2
2016-Feb-06 09:33N 54°37' W 001°09'1 0.5
2016-Feb-06 08:32N 54°37' W 001°10'0 0.4
2016-Feb-06 07:33N 54°38' W 001°10'1 0.1
2016-Feb-05 16:32N 54°36' W 001°10'0 0.0
2016-Feb-05 08:32N 54°36' W 001°10'1 1.5
2016-Feb-05 07:33N 54°38' W 001°10'3 3.0
2016-Feb-05 06:30N 54°35' W 001°12'0 0.0
2016-Feb-04 18:28N 54°35' W 001°13'3 3.2
2016-Feb-04 17:33N 54°37' W 001°10'3 1.0
2016-Feb-04 14:29N 54°35' W 001°13'0 0.0
2016-Feb-04 13:31N 54°35' W 001°13'0 0.0
2016-Feb-04 12:33N 54°35' W 001°13'0 0.0
2016-Feb-04 11:30N 54°35' W 001°13'0 0.0
2016-Feb-04 10:32N 54°35' W 001°13'0 0.0
2016-Feb-04 09:31N 54°35' W 001°13'0 0.0
2016-Feb-04 08:33N 54°35' W 001°13'3 0.3
2016-Feb-03 22:33N 54°37' W 001°10'0 0.4
2016-Feb-03 21:33N 54°38' W 001°09'3 0.6
2016-Feb-03 16:17N 54°35' W 001°13'0 0.0
2016-Feb-03 15:33N 54°35' W 001°13'0 0.0
2016-Feb-03 14:29N 54°35' W 001°13'0 0.0
2016-Feb-03 13:33N 54°35' W 001°13'0 0.0
2016-Feb-03 12:20N 54°35' W 001°13'0 0.0
2016-Feb-03 11:33N 54°35' W 001°13'0 0.0
2016-Feb-03 10:22N 54°35' W 001°13'1 1.3
2016-Feb-03 09:32N 54°35' W 001°11'1 0.1
2016-Feb-03 01:21N 54°36' W 001°10'1 0.9
2016-Feb-03 00:28N 54°36' W 001°09'2 1.7
2016-Feb-02 23:33N 54°38' W 001°10'0 0.1
2016-Feb-02 22:33N 54°38' W 001°10'1 0.0
2016-Feb-02 00:33N 54°37' W 001°10'1 0.8
2016-Feb-01 23:33N 54°37' W 001°09'0 0.0
2016-Feb-01 22:33N 54°37' W 001°09'3 2.5
2016-Feb-01 21:17N 54°35' W 001°12'3 3.7
2016-Feb-01 20:33N 54°37' W 001°09'0 0.5
2016-Feb-01 19:33N 54°37' W 001°09'0 0.0
2016-Feb-01 18:33N 54°37' W 001°09'1 0.5
2016-Feb-01 16:05N 54°36' W 001°09'0 0.0
2016-Feb-01 15:22N 54°36' W 001°09'0 0.0
2016-Feb-01 14:33N 54°36' W 001°09'0 0.0
2016-Feb-01 13:33N 54°36' W 001°09'0 0.0
2016-Feb-01 12:33N 54°36' W 001°09'1 1.0
2016-Feb-01 11:32N 54°37' W 001°09'2 2.2
2016-Feb-01 10:33N 54°35' W 001°12'1 0.7
2016-Feb-01 09:33N 54°35' W 001°13'0 0.0
2016-Feb-01 01:29N 54°35' W 001°12'2 2.4
2016-Feb-01 00:32N 54°36' W 001°10'1 1.2
2016-Jan-31 23:34N 54°38' W 001°09'3 1.4
2016-Jan-31 21:08N 54°35' W 001°13'1 1.8
2016-Jan-31 20:29N 54°35' W 001°11'0 0.1
2016-Jan-31 19:33N 54°35' W 001°11'1 0.1
2016-Jan-31 11:32N 54°36' W 001°10'0 0.0
2016-Jan-31 07:32N 54°36' W 001°10'  

Dump ship's entire track history